sensor_id;sensor_type;location;lat;lon;timestamp;P1;durP1;ratioP1;P2;durP2;ratioP2
22184;SDS011;11258;52.516;13.318;2022-09-09T00:03:43;7.70;;;6.18;;
22184;SDS011;11258;52.516;13.318;2022-09-09T00:06:22;7.05;;;6.35;;
22184;SDS011;11258;52.516;13.318;2022-09-09T00:08:58;6.78;;;5.93;;
22184;SDS011;11258;52.516;13.318;2022-09-09T00:11:31;8.07;;;6.60;;
22184;SDS011;11258;52.516;13.318;2022-09-09T00:14:07;6.88;;;6.18;;
22184;SDS011;11258;52.516;13.318;2022-09-09T00:16:40;8.10;;;5.95;;
22184;SDS011;11258;52.516;13.318;2022-09-09T00:19:16;6.88;;;6.18;;
22184;SDS011;11258;52.516;13.318;2022-09-09T00:28:01;9.05;;;7.13;;
22184;SDS011;11258;52.516;13.318;2022-09-09T00:30:23;7.72;;;6.93;;
22184;SDS011;11258;52.516;13.318;2022-09-09T00:32:53;6.78;;;6.10;;
22184;SDS011;11258;52.516;13.318;2022-09-09T00:35:44;8.70;;;7.15;;
22184;SDS011;11258;52.516;13.318;2022-09-09T00:38:35;7.93;;;7.10;;
22184;SDS011;11258;52.516;13.318;2022-09-09T00:41:06;9.15;;;7.15;;
22184;SDS011;11258;52.516;13.318;2022-09-09T00:43:42;8.63;;;7.15;;
22184;SDS011;11258;52.516;13.318;2022-09-09T00:46:31;8.82;;;7.93;;
22184;SDS011;11258;52.516;13.318;2022-09-09T00:52:22;9.10;;;7.22;;
22184;SDS011;11258;52.516;13.318;2022-09-09T00:57:41;9.63;;;7.38;;
22184;SDS011;11258;52.516;13.318;2022-09-09T01:03:05;7.18;;;6.47;;
22184;SDS011;11258;52.516;13.318;2022-09-09T01:06:00;8.07;;;6.90;;
22184;SDS011;11258;52.516;13.318;2022-09-09T01:08:42;8.60;;;7.07;;
22184;SDS011;11258;52.516;13.318;2022-09-09T01:16:59;8.23;;;6.43;;
22184;SDS011;11258;52.516;13.318;2022-09-09T01:19:39;8.35;;;7.03;;
22184;SDS011;11258;52.516;13.318;2022-09-09T01:27:46;8.38;;;7.22;;
22184;SDS011;11258;52.516;13.318;2022-09-09T01:30:15;7.80;;;6.78;;
22184;SDS011;11258;52.516;13.318;2022-09-09T01:32:44;8.75;;;7.60;;
22184;SDS011;11258;52.516;13.318;2022-09-09T01:35:12;9.05;;;7.20;;
22184;SDS011;11258;52.516;13.318;2022-09-09T01:37:46;7.97;;;7.07;;
22184;SDS011;11258;52.516;13.318;2022-09-09T01:40:12;9.68;;;7.43;;
22184;SDS011;11258;52.516;13.318;2022-09-09T01:42:37;7.88;;;7.07;;
22184;SDS011;11258;52.516;13.318;2022-09-09T01:45:03;8.70;;;7.45;;
22184;SDS011;11258;52.516;13.318;2022-09-09T01:47:29;8.02;;;7.22;;
22184;SDS011;11258;52.516;13.318;2022-09-09T01:49:55;8.70;;;7.03;;
22184;SDS011;11258;52.516;13.318;2022-09-09T01:52:20;8.75;;;7.50;;
22184;SDS011;11258;52.516;13.318;2022-09-09T01:54:46;7.15;;;6.45;;
22184;SDS011;11258;52.516;13.318;2022-09-09T01:57:17;9.48;;;7.60;;
22184;SDS011;11258;52.516;13.318;2022-09-09T02:08:08;8.73;;;7.32;;
22184;SDS011;11258;52.516;13.318;2022-09-09T02:13:26;9.50;;;7.28;;
22184;SDS011;11258;52.516;13.318;2022-09-09T02:18:45;8.70;;;7.65;;
22184;SDS011;11258;52.516;13.318;2022-09-09T02:21:13;8.63;;;7.25;;
22184;SDS011;11258;52.516;13.318;2022-09-09T02:23:42;8.30;;;6.90;;
22184;SDS011;11258;52.516;13.318;2022-09-09T02:26:08;8.75;;;7.38;;
22184;SDS011;11258;52.516;13.318;2022-09-09T02:28:38;9.60;;;7.65;;
22184;SDS011;11258;52.516;13.318;2022-09-09T02:31:05;8.50;;;7.53;;
22184;SDS011;11258;52.516;13.318;2022-09-09T02:33:33;8.73;;;6.38;;
22184;SDS011;11258;52.516;13.318;2022-09-09T02:36:03;9.27;;;7.13;;
22184;SDS011;11258;52.516;13.318;2022-09-09T02:38:33;10.80;;;7.13;;
22184;SDS011;11258;52.516;13.318;2022-09-09T02:41:02;8.07;;;7.28;;
22184;SDS011;11258;52.516;13.318;2022-09-09T02:43:34;9.25;;;7.07;;
22184;SDS011;11258;52.516;13.318;2022-09-09T02:46:07;11.10;;;7.63;;
22184;SDS011;11258;52.516;13.318;2022-09-09T02:49:11;8.52;;;6.85;;
22184;SDS011;11258;52.516;13.318;2022-09-09T02:54:34;7.75;;;6.95;;
22184;SDS011;11258;52.516;13.318;2022-09-09T02:59:39;9.23;;;6.85;;
22184;SDS011;11258;52.516;13.318;2022-09-09T03:02:06;9.27;;;6.88;;
22184;SDS011;11258;52.516;13.318;2022-09-09T03:04:32;9.35;;;7.30;;
22184;SDS011;11258;52.516;13.318;2022-09-09T03:06:58;8.27;;;7.30;;
22184;SDS011;11258;52.516;13.318;2022-09-09T03:09:24;7.28;;;6.13;;
22184;SDS011;11258;52.516;13.318;2022-09-09T03:11:50;7.53;;;6.70;;
22184;SDS011;11258;52.516;13.318;2022-09-09T03:14:16;7.50;;;6.75;;
22184;SDS011;11258;52.516;13.318;2022-09-09T03:16:46;7.90;;;6.85;;
22184;SDS011;11258;52.516;13.318;2022-09-09T03:19:12;7.70;;;6.90;;
22184;SDS011;11258;52.516;13.318;2022-09-09T03:21:37;8.55;;;6.97;;
22184;SDS011;11258;52.516;13.318;2022-09-09T03:24:03;8.05;;;7.25;;
22184;SDS011;11258;52.516;13.318;2022-09-09T03:26:29;8.02;;;7.15;;
22184;SDS011;11258;52.516;13.318;2022-09-09T03:28:55;8.38;;;6.72;;
22184;SDS011;11258;52.516;13.318;2022-09-09T03:31:21;7.72;;;6.85;;
22184;SDS011;11258;52.516;13.318;2022-09-09T03:33:47;8.77;;;6.60;;
22184;SDS011;11258;52.516;13.318;2022-09-09T03:36:13;8.38;;;6.68;;
22184;SDS011;11258;52.516;13.318;2022-09-09T03:38:39;8.82;;;5.85;;
22184;SDS011;11258;52.516;13.318;2022-09-09T03:41:05;7.22;;;6.30;;
22184;SDS011;11258;52.516;13.318;2022-09-09T03:43:32;10.38;;;6.80;;
22184;SDS011;11258;52.516;13.318;2022-09-09T03:45:58;7.72;;;6.93;;
22184;SDS011;11258;52.516;13.318;2022-09-09T03:48:24;8.45;;;6.47;;
22184;SDS011;11258;52.516;13.318;2022-09-09T03:50:51;7.25;;;5.97;;
22184;SDS011;11258;52.516;13.318;2022-09-09T03:53:18;8.40;;;6.15;;
22184;SDS011;11258;52.516;13.318;2022-09-09T03:55:46;8.55;;;6.15;;
22184;SDS011;11258;52.516;13.318;2022-09-09T03:58:13;6.82;;;5.63;;
22184;SDS011;11258;52.516;13.318;2022-09-09T04:00:40;7.88;;;6.47;;
22184;SDS011;11258;52.516;13.318;2022-09-09T04:03:08;7.28;;;5.82;;
22184;SDS011;11258;52.516;13.318;2022-09-09T04:05:34;9.32;;;5.90;;
22184;SDS011;11258;52.516;13.318;2022-09-09T04:08:00;10.32;;;6.18;;
22184;SDS011;11258;52.516;13.318;2022-09-09T04:10:26;7.28;;;5.45;;
22184;SDS011;11258;52.516;13.318;2022-09-09T04:12:51;7.47;;;5.82;;
22184;SDS011;11258;52.516;13.318;2022-09-09T04:15:17;8.13;;;5.75;;
22184;SDS011;11258;52.516;13.318;2022-09-09T04:17:43;6.78;;;5.88;;
22184;SDS011;11258;52.516;13.318;2022-09-09T04:20:09;6.63;;;5.80;;
22184;SDS011;11258;52.516;13.318;2022-09-09T04:22:37;4.90;;;4.45;;
22184;SDS011;11258;52.516;13.318;2022-09-09T04:25:04;5.95;;;5.10;;
22184;SDS011;11258;52.516;13.318;2022-09-09T04:27:30;9.60;;;5.53;;
22184;SDS011;11258;52.516;13.318;2022-09-09T04:29:56;6.25;;;5.22;;
22184;SDS011;11258;52.516;13.318;2022-09-09T04:32:22;7.05;;;5.32;;
22184;SDS011;11258;52.516;13.318;2022-09-09T04:34:48;8.30;;;5.57;;
22184;SDS011;11258;52.516;13.318;2022-09-09T04:37:13;5.22;;;4.68;;
22184;SDS011;11258;52.516;13.318;2022-09-09T04:39:39;5.97;;;5.38;;
22184;SDS011;11258;52.516;13.318;2022-09-09T04:42:05;5.13;;;4.65;;
22184;SDS011;11258;52.516;13.318;2022-09-09T04:44:30;8.90;;;6.00;;
22184;SDS011;11258;52.516;13.318;2022-09-09T04:46:56;5.40;;;4.90;;
22184;SDS011;11258;52.516;13.318;2022-09-09T04:49:22;6.40;;;5.15;;
22184;SDS011;11258;52.516;13.318;2022-09-09T04:51:48;7.85;;;5.45;;
22184;SDS011;11258;52.516;13.318;2022-09-09T04:54:14;6.95;;;4.93;;
22184;SDS011;11258;52.516;13.318;2022-09-09T04:56:40;9.02;;;4.60;;
22184;SDS011;11258;52.516;13.318;2022-09-09T04:59:07;7.32;;;5.45;;
22184;SDS011;11258;52.516;13.318;2022-09-09T05:01:32;4.97;;;4.57;;
22184;SDS011;11258;52.516;13.318;2022-09-09T05:03:59;5.43;;;4.93;;
22184;SDS011;11258;52.516;13.318;2022-09-09T05:06:24;5.50;;;4.03;;
22184;SDS011;11258;52.516;13.318;2022-09-09T05:08:50;4.43;;;4.03;;
22184;SDS011;11258;52.516;13.318;2022-09-09T05:11:16;5.43;;;4.05;;
22184;SDS011;11258;52.516;13.318;2022-09-09T05:13:42;8.90;;;4.15;;
22184;SDS011;11258;52.516;13.318;2022-09-09T05:16:09;8.93;;;7.10;;
22184;SDS011;11258;52.516;13.318;2022-09-09T05:18:36;7.60;;;6.38;;
22184;SDS011;11258;52.516;13.318;2022-09-09T05:21:02;4.47;;;3.50;;
22184;SDS011;11258;52.516;13.318;2022-09-09T05:23:28;4.68;;;3.58;;
22184;SDS011;11258;52.516;13.318;2022-09-09T05:25:57;4.60;;;3.08;;
22184;SDS011;11258;52.516;13.318;2022-09-09T05:28:24;3.45;;;2.63;;
22184;SDS011;11258;52.516;13.318;2022-09-09T05:31:01;3.70;;;2.85;;
22184;SDS011;11258;52.516;13.318;2022-09-09T05:33:33;2.92;;;2.60;;
22184;SDS011;11258;52.516;13.318;2022-09-09T05:36:03;4.03;;;2.65;;
22184;SDS011;11258;52.516;13.318;2022-09-09T05:38:31;3.60;;;2.70;;
22184;SDS011;11258;52.516;13.318;2022-09-09T05:40:58;2.92;;;2.53;;
22184;SDS011;11258;52.516;13.318;2022-09-09T05:43:24;3.75;;;2.53;;
22184;SDS011;11258;52.516;13.318;2022-09-09T05:46:00;5.75;;;2.65;;
22184;SDS011;11258;52.516;13.318;2022-09-09T05:48:36;4.35;;;2.75;;
22184;SDS011;11258;52.516;13.318;2022-09-09T05:51:03;4.32;;;2.38;;
22184;SDS011;11258;52.516;13.318;2022-09-09T05:53:34;5.28;;;2.80;;
22184;SDS011;11258;52.516;13.318;2022-09-09T05:56:01;5.30;;;2.40;;
22184;SDS011;11258;52.516;13.318;2022-09-09T05:58:41;4.00;;;1.92;;
22184;SDS011;11258;52.516;13.318;2022-09-09T06:01:12;3.20;;;2.20;;
22184;SDS011;11258;52.516;13.318;2022-09-09T06:03:40;3.92;;;2.20;;
22184;SDS011;11258;52.516;13.318;2022-09-09T06:06:09;6.45;;;2.72;;
22184;SDS011;11258;52.516;13.318;2022-09-09T06:08:37;5.95;;;3.45;;
22184;SDS011;11258;52.516;13.318;2022-09-09T06:11:09;5.43;;;2.40;;
22184;SDS011;11258;52.516;13.318;2022-09-09T06:13:37;4.05;;;2.30;;
22184;SDS011;11258;52.516;13.318;2022-09-09T06:16:04;2.78;;;1.98;;
22184;SDS011;11258;52.516;13.318;2022-09-09T06:18:32;4.10;;;2.63;;
22184;SDS011;11258;52.516;13.318;2022-09-09T06:20:58;5.50;;;3.10;;
22184;SDS011;11258;52.516;13.318;2022-09-09T06:23:26;3.67;;;2.50;;
22184;SDS011;11258;52.516;13.318;2022-09-09T06:26:03;2.80;;;2.15;;
22184;SDS011;11258;52.516;13.318;2022-09-09T06:28:30;2.92;;;2.10;;
22184;SDS011;11258;52.516;13.318;2022-09-09T06:31:00;5.00;;;2.45;;
22184;SDS011;11258;52.516;13.318;2022-09-09T06:33:30;7.97;;;2.40;;
22184;SDS011;11258;52.516;13.318;2022-09-09T06:35:56;2.80;;;2.10;;
22184;SDS011;11258;52.516;13.318;2022-09-09T06:38:23;4.55;;;2.55;;
22184;SDS011;11258;52.516;13.318;2022-09-09T06:40:55;3.63;;;2.40;;
22184;SDS011;11258;52.516;13.318;2022-09-09T06:43:23;6.22;;;3.13;;
22184;SDS011;11258;52.516;13.318;2022-09-09T06:45:55;4.28;;;2.55;;
22184;SDS011;11258;52.516;13.318;2022-09-09T06:48:23;4.63;;;2.40;;
22184;SDS011;11258;52.516;13.318;2022-09-09T06:50:50;4.72;;;2.60;;
22184;SDS011;11258;52.516;13.318;2022-09-09T06:53:24;4.55;;;2.35;;
22184;SDS011;11258;52.516;13.318;2022-09-09T06:55:51;2.75;;;2.47;;
22184;SDS011;11258;52.516;13.318;2022-09-09T06:58:16;4.05;;;2.50;;
22184;SDS011;11258;52.516;13.318;2022-09-09T07:00:42;4.45;;;1.98;;
22184;SDS011;11258;52.516;13.318;2022-09-09T07:03:07;6.90;;;2.38;;
22184;SDS011;11258;52.516;13.318;2022-09-09T07:05:35;5.13;;;2.30;;
22184;SDS011;11258;52.516;13.318;2022-09-09T07:08:00;5.95;;;2.20;;
22184;SDS011;11258;52.516;13.318;2022-09-09T07:10:27;4.32;;;2.08;;
22184;SDS011;11258;52.516;13.318;2022-09-09T07:12:53;3.72;;;1.75;;
22184;SDS011;11258;52.516;13.318;2022-09-09T07:15:19;2.85;;;1.60;;
22184;SDS011;11258;52.516;13.318;2022-09-09T07:17:46;5.20;;;2.10;;
22184;SDS011;11258;52.516;13.318;2022-09-09T07:20:13;4.43;;;2.05;;
22184;SDS011;11258;52.516;13.318;2022-09-09T07:22:39;3.33;;;1.52;;
22184;SDS011;11258;52.516;13.318;2022-09-09T07:25:05;3.47;;;1.70;;
22184;SDS011;11258;52.516;13.318;2022-09-09T07:27:32;2.63;;;1.65;;
22184;SDS011;11258;52.516;13.318;2022-09-09T07:29:57;2.67;;;1.83;;
22184;SDS011;11258;52.516;13.318;2022-09-09T07:32:23;3.78;;;1.70;;
22184;SDS011;11258;52.516;13.318;2022-09-09T07:34:50;1.60;;;1.38;;
22184;SDS011;11258;52.516;13.318;2022-09-09T07:37:16;3.53;;;1.70;;
22184;SDS011;11258;52.516;13.318;2022-09-09T07:39:42;3.45;;;1.60;;
22184;SDS011;11258;52.516;13.318;2022-09-09T07:42:08;4.47;;;1.50;;
22184;SDS011;11258;52.516;13.318;2022-09-09T07:44:36;4.65;;;1.60;;
22184;SDS011;11258;52.516;13.318;2022-09-09T07:47:02;3.67;;;1.60;;
22184;SDS011;11258;52.516;13.318;2022-09-09T07:49:28;5.20;;;1.52;;
22184;SDS011;11258;52.516;13.318;2022-09-09T07:51:53;4.30;;;2.20;;
22184;SDS011;11258;52.516;13.318;2022-09-09T07:54:19;3.58;;;1.83;;
22184;SDS011;11258;52.516;13.318;2022-09-09T07:56:48;3.42;;;1.58;;
22184;SDS011;11258;52.516;13.318;2022-09-09T07:59:14;3.58;;;1.52;;
22184;SDS011;11258;52.516;13.318;2022-09-09T08:01:47;4.15;;;1.40;;
22184;SDS011;11258;52.516;13.318;2022-09-09T08:04:17;1.63;;;1.10;;
22184;SDS011;11258;52.516;13.318;2022-09-09T08:06:45;3.78;;;1.42;;
22184;SDS011;11258;52.516;13.318;2022-09-09T08:09:12;4.20;;;1.60;;
22184;SDS011;11258;52.516;13.318;2022-09-09T08:11:39;4.85;;;2.53;;
22184;SDS011;11258;52.516;13.318;2022-09-09T08:14:05;3.83;;;2.20;;
22184;SDS011;11258;52.516;13.318;2022-09-09T08:16:33;5.38;;;2.25;;
22184;SDS011;11258;52.516;13.318;2022-09-09T08:19:02;3.55;;;1.75;;
22184;SDS011;11258;52.516;13.318;2022-09-09T08:21:29;2.05;;;1.58;;
22184;SDS011;11258;52.516;13.318;2022-09-09T08:23:58;3.08;;;1.27;;
22184;SDS011;11258;52.516;13.318;2022-09-09T08:26:26;4.15;;;1.63;;
22184;SDS011;11258;52.516;13.318;2022-09-09T08:28:57;2.45;;;1.20;;
22184;SDS011;11258;52.516;13.318;2022-09-09T08:31:31;4.22;;;1.88;;
22184;SDS011;11258;52.516;13.318;2022-09-09T08:34:19;2.03;;;1.27;;
22184;SDS011;11258;52.516;13.318;2022-09-09T08:36:46;4.13;;;1.60;;
22184;SDS011;11258;52.516;13.318;2022-09-09T08:39:13;4.95;;;1.65;;
22184;SDS011;11258;52.516;13.318;2022-09-09T08:41:44;2.38;;;1.20;;
22184;SDS011;11258;52.516;13.318;2022-09-09T08:44:31;5.10;;;1.52;;
22184;SDS011;11258;52.516;13.318;2022-09-09T08:52:26;5.68;;;1.52;;
22184;SDS011;11258;52.516;13.318;2022-09-09T08:55:10;4.60;;;1.20;;
22184;SDS011;11258;52.516;13.318;2022-09-09T08:57:46;3.78;;;1.40;;
22184;SDS011;11258;52.516;13.318;2022-09-09T09:00:12;2.95;;;1.33;;
22184;SDS011;11258;52.516;13.318;2022-09-09T09:02:42;3.63;;;1.33;;
22184;SDS011;11258;52.516;13.318;2022-09-09T09:05:33;5.18;;;1.63;;
22184;SDS011;11258;52.516;13.318;2022-09-09T09:08:27;3.58;;;1.30;;
22184;SDS011;11258;52.516;13.318;2022-09-09T09:11:03;3.58;;;1.58;;
22184;SDS011;11258;52.516;13.318;2022-09-09T09:15:58;2.83;;;1.50;;
22184;SDS011;11258;52.516;13.318;2022-09-09T09:18:29;5.53;;;1.88;;
22184;SDS011;11258;52.516;13.318;2022-09-09T09:21:04;4.53;;;1.55;;
22184;SDS011;11258;52.516;13.318;2022-09-09T09:23:44;2.90;;;1.60;;
22184;SDS011;11258;52.516;13.318;2022-09-09T09:26:16;4.95;;;1.60;;
22184;SDS011;11258;52.516;13.318;2022-09-09T09:28:43;3.33;;;1.30;;
22184;SDS011;11258;52.516;13.318;2022-09-09T09:31:10;5.07;;;1.58;;
22184;SDS011;11258;52.516;13.318;2022-09-09T09:36:06;2.92;;;1.20;;
22184;SDS011;11258;52.516;13.318;2022-09-09T09:38:35;2.55;;;1.20;;
22184;SDS011;11258;52.516;13.318;2022-09-09T09:41:01;5.13;;;1.48;;
22184;SDS011;11258;52.516;13.318;2022-09-09T09:43:28;3.38;;;1.08;;
22184;SDS011;11258;52.516;13.318;2022-09-09T09:45:56;4.30;;;1.60;;
22184;SDS011;11258;52.516;13.318;2022-09-09T09:48:23;3.75;;;1.40;;
22184;SDS011;11258;52.516;13.318;2022-09-09T09:50:50;5.55;;;2.00;;
22184;SDS011;11258;52.516;13.318;2022-09-09T09:53:26;11.93;;;6.88;;
22184;SDS011;11258;52.516;13.318;2022-09-09T09:58:20;2.75;;;1.23;;
22184;SDS011;11258;52.516;13.318;2022-09-09T10:00:50;5.47;;;1.30;;
22184;SDS011;11258;52.516;13.318;2022-09-09T10:03:33;4.22;;;1.55;;
22184;SDS011;11258;52.516;13.318;2022-09-09T10:06:05;2.22;;;1.00;;
22184;SDS011;11258;52.516;13.318;2022-09-09T10:08:33;3.83;;;2.20;;
22184;SDS011;11258;52.516;13.318;2022-09-09T10:16:44;2.72;;;1.30;;
22184;SDS011;11258;52.516;13.318;2022-09-09T10:19:33;2.58;;;1.35;;
22184;SDS011;11258;52.516;13.318;2022-09-09T10:32:48;6.32;;;1.38;;
22184;SDS011;11258;52.516;13.318;2022-09-09T10:43:19;2.20;;;1.17;;
22184;SDS011;11258;52.516;13.318;2022-09-09T10:57:04;5.00;;;1.40;;
22184;SDS011;11258;52.516;13.318;2022-09-09T10:59:48;2.03;;;0.82;;
22184;SDS011;11258;52.516;13.318;2022-09-09T11:02:20;4.45;;;1.33;;
22184;SDS011;11258;52.516;13.318;2022-09-09T11:04:58;4.80;;;1.40;;
22184;SDS011;11258;52.516;13.318;2022-09-09T11:07:37;2.35;;;1.38;;
22184;SDS011;11258;52.516;13.318;2022-09-09T11:13:15;5.15;;;1.67;;
22184;SDS011;11258;52.516;13.318;2022-09-09T11:15:52;8.60;;;2.00;;
22184;SDS011;11258;52.516;13.318;2022-09-09T11:18:22;4.20;;;1.38;;
22184;SDS011;11258;52.516;13.318;2022-09-09T11:20:49;2.28;;;1.50;;
22184;SDS011;11258;52.516;13.318;2022-09-09T11:23:22;6.47;;;1.75;;
22184;SDS011;11258;52.516;13.318;2022-09-09T11:25:56;8.05;;;2.63;;
22184;SDS011;11258;52.516;13.318;2022-09-09T11:39:30;2.05;;;1.63;;
22184;SDS011;11258;52.516;13.318;2022-09-09T11:42:07;3.28;;;0.85;;
22184;SDS011;11258;52.516;13.318;2022-09-09T11:44:39;3.25;;;1.17;;
22184;SDS011;11258;52.516;13.318;2022-09-09T11:47:17;3.60;;;1.20;;
22184;SDS011;11258;52.516;13.318;2022-09-09T11:49:44;3.08;;;1.08;;
22184;SDS011;11258;52.516;13.318;2022-09-09T11:52:11;2.67;;;1.10;;
22184;SDS011;11258;52.516;13.318;2022-09-09T11:54:48;2.92;;;1.30;;
22184;SDS011;11258;52.516;13.318;2022-09-09T11:57:25;4.28;;;0.80;;
22184;SDS011;11258;52.516;13.318;2022-09-09T12:00:01;3.20;;;1.40;;
22184;SDS011;11258;52.516;13.318;2022-09-09T12:02:28;2.72;;;0.88;;
22184;SDS011;11258;52.516;13.318;2022-09-09T12:07:50;1.05;;;0.90;;
22184;SDS011;11258;52.516;13.318;2022-09-09T12:10:26;2.22;;;0.80;;
22184;SDS011;11258;52.516;13.318;2022-09-09T12:12:52;3.97;;;1.05;;
22184;SDS011;11258;52.516;13.318;2022-09-09T12:17:46;3.13;;;1.52;;
22184;SDS011;11258;52.516;13.318;2022-09-09T12:23:04;2.10;;;0.90;;
22184;SDS011;11258;52.516;13.318;2022-09-09T12:34:08;2.15;;;0.95;;
22184;SDS011;11258;52.516;13.318;2022-09-09T12:36:43;4.07;;;1.00;;
22184;SDS011;11258;52.516;13.318;2022-09-09T12:39:34;2.80;;;1.42;;
22184;SDS011;11258;52.516;13.318;2022-09-09T12:42:03;2.15;;;0.98;;
22184;SDS011;11258;52.516;13.318;2022-09-09T12:44:29;2.70;;;1.30;;
22184;SDS011;11258;52.516;13.318;2022-09-09T12:46:55;3.15;;;1.25;;
22184;SDS011;11258;52.516;13.318;2022-09-09T12:49:26;2.85;;;0.93;;
22184;SDS011;11258;52.516;13.318;2022-09-09T12:52:03;2.42;;;0.93;;
22184;SDS011;11258;52.516;13.318;2022-09-09T12:54:32;2.47;;;1.00;;
22184;SDS011;11258;52.516;13.318;2022-09-09T12:57:00;3.97;;;0.90;;
22184;SDS011;11258;52.516;13.318;2022-09-09T12:59:27;1.80;;;0.88;;
22184;SDS011;11258;52.516;13.318;2022-09-09T13:02:01;2.53;;;1.20;;
22184;SDS011;11258;52.516;13.318;2022-09-09T13:04:27;2.72;;;1.27;;
22184;SDS011;11258;52.516;13.318;2022-09-09T13:06:52;2.63;;;1.25;;
22184;SDS011;11258;52.516;13.318;2022-09-09T13:09:18;5.18;;;1.58;;
22184;SDS011;11258;52.516;13.318;2022-09-09T13:11:52;1.73;;;1.05;;
22184;SDS011;11258;52.516;13.318;2022-09-09T13:14:32;7.90;;;1.20;;
22184;SDS011;11258;52.516;13.318;2022-09-09T13:17:02;4.25;;;1.48;;
22184;SDS011;11258;52.516;13.318;2022-09-09T13:19:31;4.18;;;1.67;;
22184;SDS011;11258;52.516;13.318;2022-09-09T13:22:00;5.13;;;3.30;;
22184;SDS011;11258;52.516;13.318;2022-09-09T13:24:44;5.10;;;2.00;;
22184;SDS011;11258;52.516;13.318;2022-09-09T13:29:55;2.90;;;1.40;;
22184;SDS011;11258;52.516;13.318;2022-09-09T13:32:21;4.68;;;1.60;;
22184;SDS011;11258;52.516;13.318;2022-09-09T13:34:52;4.72;;;2.15;;
22184;SDS011;11258;52.516;13.318;2022-09-09T13:39:55;2.33;;;1.42;;
22184;SDS011;11258;52.516;13.318;2022-09-09T13:42:27;3.50;;;1.80;;
22184;SDS011;11258;52.516;13.318;2022-09-09T13:44:55;3.95;;;1.42;;
22184;SDS011;11258;52.516;13.318;2022-09-09T13:47:26;6.20;;;2.05;;
22184;SDS011;11258;52.516;13.318;2022-09-09T13:50:13;4.78;;;3.00;;
22184;SDS011;11258;52.516;13.318;2022-09-09T13:52:44;4.30;;;2.28;;
22184;SDS011;11258;52.516;13.318;2022-09-09T13:55:09;2.63;;;1.25;;
22184;SDS011;11258;52.516;13.318;2022-09-09T13:57:35;6.57;;;2.80;;
22184;SDS011;11258;52.516;13.318;2022-09-09T14:00:00;8.75;;;4.32;;
22184;SDS011;11258;52.516;13.318;2022-09-09T14:02:26;3.88;;;1.30;;
22184;SDS011;11258;52.516;13.318;2022-09-09T14:04:51;3.90;;;2.53;;
22184;SDS011;11258;52.516;13.318;2022-09-09T14:07:20;7.15;;;3.83;;
22184;SDS011;11258;52.516;13.318;2022-09-09T14:09:46;4.82;;;2.08;;
22184;SDS011;11258;52.516;13.318;2022-09-09T14:12:14;3.75;;;1.50;;
22184;SDS011;11258;52.516;13.318;2022-09-09T14:14:41;1.48;;;1.20;;
22184;SDS011;11258;52.516;13.318;2022-09-09T14:17:07;4.88;;;1.27;;
22184;SDS011;11258;52.516;13.318;2022-09-09T14:19:33;3.72;;;1.13;;
22184;SDS011;11258;52.516;13.318;2022-09-09T14:21:59;1.42;;;0.80;;
22184;SDS011;11258;52.516;13.318;2022-09-09T14:24:26;5.63;;;2.00;;
22184;SDS011;11258;52.516;13.318;2022-09-09T14:26:52;5.07;;;3.20;;
22184;SDS011;11258;52.516;13.318;2022-09-09T14:29:18;4.47;;;1.60;;
22184;SDS011;11258;52.516;13.318;2022-09-09T14:31:44;2.92;;;1.10;;
22184;SDS011;11258;52.516;13.318;2022-09-09T14:34:09;3.95;;;1.52;;
22184;SDS011;11258;52.516;13.318;2022-09-09T14:36:36;3.72;;;1.63;;
22184;SDS011;11258;52.516;13.318;2022-09-09T14:39:02;3.10;;;1.23;;
22184;SDS011;11258;52.516;13.318;2022-09-09T14:41:29;4.03;;;1.70;;
22184;SDS011;11258;52.516;13.318;2022-09-09T14:43:55;4.20;;;1.40;;
22184;SDS011;11258;52.516;13.318;2022-09-09T14:46:21;4.82;;;1.30;;
22184;SDS011;11258;52.516;13.318;2022-09-09T14:48:47;7.50;;;5.03;;
22184;SDS011;11258;52.516;13.318;2022-09-09T14:51:17;5.85;;;2.08;;
22184;SDS011;11258;52.516;13.318;2022-09-09T14:53:47;4.82;;;1.60;;
22184;SDS011;11258;52.516;13.318;2022-09-09T14:56:17;3.58;;;1.27;;
22184;SDS011;11258;52.516;13.318;2022-09-09T14:58:44;4.05;;;1.00;;
22184;SDS011;11258;52.516;13.318;2022-09-09T15:01:12;4.28;;;1.30;;
22184;SDS011;11258;52.516;13.318;2022-09-09T15:03:42;6.00;;;1.55;;
22184;SDS011;11258;52.516;13.318;2022-09-09T15:06:13;4.25;;;1.40;;
22184;SDS011;11258;52.516;13.318;2022-09-09T15:08:40;2.40;;;1.10;;
22184;SDS011;11258;52.516;13.318;2022-09-09T15:11:08;2.92;;;0.95;;
22184;SDS011;11258;52.516;13.318;2022-09-09T15:13:35;2.92;;;1.40;;
22184;SDS011;11258;52.516;13.318;2022-09-09T15:16:14;2.53;;;1.25;;
22184;SDS011;11258;52.516;13.318;2022-09-09T15:18:42;3.42;;;1.40;;
22184;SDS011;11258;52.516;13.318;2022-09-09T15:21:10;3.20;;;1.45;;
22184;SDS011;11258;52.516;13.318;2022-09-09T15:23:40;3.80;;;1.55;;
22184;SDS011;11258;52.516;13.318;2022-09-09T15:26:06;2.58;;;1.33;;
22184;SDS011;11258;52.516;13.318;2022-09-09T15:28:33;7.35;;;2.85;;
22184;SDS011;11258;52.516;13.318;2022-09-09T15:31:21;3.65;;;1.08;;
22184;SDS011;11258;52.516;13.318;2022-09-09T15:36:18;5.15;;;1.60;;
22184;SDS011;11258;52.516;13.318;2022-09-09T15:38:45;2.80;;;1.25;;
22184;SDS011;11258;52.516;13.318;2022-09-09T15:41:14;4.45;;;1.70;;
22184;SDS011;11258;52.516;13.318;2022-09-09T15:43:44;4.35;;;1.52;;
22184;SDS011;11258;52.516;13.318;2022-09-09T15:48:51;4.75;;;1.27;;
22184;SDS011;11258;52.516;13.318;2022-09-09T15:51:17;3.65;;;1.60;;
22184;SDS011;11258;52.516;13.318;2022-09-09T15:53:43;2.90;;;1.15;;
22184;SDS011;11258;52.516;13.318;2022-09-09T15:56:09;5.43;;;2.20;;
22184;SDS011;11258;52.516;13.318;2022-09-09T15:58:35;9.13;;;3.92;;
22184;SDS011;11258;52.516;13.318;2022-09-09T16:01:05;9.02;;;3.83;;
22184;SDS011;11258;52.516;13.318;2022-09-09T16:03:35;3.28;;;1.55;;
22184;SDS011;11258;52.516;13.318;2022-09-09T16:06:03;6.97;;;1.95;;
22184;SDS011;11258;52.516;13.318;2022-09-09T16:08:37;5.18;;;2.10;;
22184;SDS011;11258;52.516;13.318;2022-09-09T16:11:05;4.88;;;2.05;;
22184;SDS011;11258;52.516;13.318;2022-09-09T16:13:32;4.20;;;1.70;;
22184;SDS011;11258;52.516;13.318;2022-09-09T16:15:59;2.42;;;1.17;;
22184;SDS011;11258;52.516;13.318;2022-09-09T16:18:24;4.03;;;2.10;;
22184;SDS011;11258;52.516;13.318;2022-09-09T16:20:53;2.78;;;1.52;;
22184;SDS011;11258;52.516;13.318;2022-09-09T16:23:19;5.78;;;1.58;;
22184;SDS011;11258;52.516;13.318;2022-09-09T16:25:52;7.28;;;2.90;;
22184;SDS011;11258;52.516;13.318;2022-09-09T16:28:19;3.00;;;1.55;;
22184;SDS011;11258;52.516;13.318;2022-09-09T16:30:45;5.57;;;1.88;;
22184;SDS011;11258;52.516;13.318;2022-09-09T16:33:10;6.78;;;2.83;;
22184;SDS011;11258;52.516;13.318;2022-09-09T16:35:36;5.97;;;2.20;;
22184;SDS011;11258;52.516;13.318;2022-09-09T16:38:03;6.28;;;3.53;;
22184;SDS011;11258;52.516;13.318;2022-09-09T16:40:29;3.55;;;1.45;;
22184;SDS011;11258;52.516;13.318;2022-09-09T16:42:55;7.13;;;2.35;;
22184;SDS011;11258;52.516;13.318;2022-09-09T16:45:21;4.65;;;2.13;;
22184;SDS011;11258;52.516;13.318;2022-09-09T16:47:47;4.75;;;2.80;;
22184;SDS011;11258;52.516;13.318;2022-09-09T16:50:13;4.25;;;2.50;;
22184;SDS011;11258;52.516;13.318;2022-09-09T16:52:39;1.85;;;1.13;;
22184;SDS011;11258;52.516;13.318;2022-09-09T16:55:05;2.83;;;1.17;;
22184;SDS011;11258;52.516;13.318;2022-09-09T16:57:30;3.13;;;1.52;;
22184;SDS011;11258;52.516;13.318;2022-09-09T16:59:56;2.00;;;1.13;;
22184;SDS011;11258;52.516;13.318;2022-09-09T17:02:24;3.45;;;1.70;;
22184;SDS011;11258;52.516;13.318;2022-09-09T17:04:50;3.58;;;1.63;;